Time;durP1;ratioP1;P1;durP2;ratioP2;P2;SDS_P1;SDS_P2;PMS_P1;PMS_P2;Temp;Humidity;BMP_temperature;BMP_pressure;BME280_temperature;BME280_humidity;BME280_pressure;Samples;Min_cycle;Max_cycle;Signal;HPM_P1;HPM_P2
2023/05/01 00:00:06;;;;;;;0.32;0.32;;;7.00;99.90;;;;;;5029357;28;20081;-74
2023/05/01 00:02:31;;;;;;;0.50;0.50;;;6.90;99.90;;;;;;5027986;28;20063;-74
2023/05/01 00:04:57;;;;;;;0.50;0.50;;;6.80;99.90;;;;;;5014786;28;20044;-72
2023/05/01 00:07:29;;;;;;;0.50;0.50;;;6.80;99.90;;;;;;5028816;28;20041;-72
2023/05/01 00:09:56;;;;;;;0.50;0.50;;;6.70;99.90;;;;;;5012019;28;20056;-72
2023/05/01 00:12:22;;;;;;;0.40;0.40;;;6.70;99.90;;;;;;5028834;28;20076;-73
2023/05/01 00:14:47;;;;;;;0.50;0.50;;;6.70;99.90;;;;;;5027490;28;20083;-72
2023/05/01 00:17:13;;;;;;;0.60;0.60;;;6.60;99.90;;;;;;5028385;28;20563;-72
2023/05/01 00:19:39;;;;;;;0.50;0.50;;;6.50;99.90;;;;;;5027994;28;20062;-73
2023/05/01 00:22:05;;;;;;;0.40;0.40;;;6.50;99.90;;;;;;5027608;28;20056;-72
2023/05/01 00:24:31;;;;;;;0.40;0.40;;;6.50;99.90;;;;;;5025761;28;20442;-72
2023/05/01 00:26:57;;;;;;;0.70;0.70;;;6.50;99.90;;;;;;5028492;28;20087;-73
2023/05/01 00:29:22;;;;;;;0.50;0.50;;;6.40;99.90;;;;;;5012298;28;20551;-73
2023/05/01 00:31:48;;;;;;;0.55;0.55;;;6.50;99.90;;;;;;5025530;28;20044;-73
2023/05/01 00:34:14;;;;;;;0.50;0.50;;;6.40;99.90;;;;;;5025677;28;20044;-72
2023/05/01 00:36:39;;;;;;;0.63;0.63;;;6.30;99.90;;;;;;5026562;28;20040;-72
2023/05/01 00:39:07;;;;;;;0.50;0.50;;;6.30;99.90;;;;;;5028655;28;20055;-72
2023/05/01 00:41:35;;;;;;;0.57;0.57;;;6.20;99.90;;;;;;5026272;28;20410;-72
2023/05/01 00:44:02;;;;;;;0.60;0.60;;;6.30;99.90;;;;;;5027788;28;20417;-72
2023/05/01 00:46:29;;;;;;;0.60;0.60;;;6.20;99.90;;;;;;5044518;28;20040;-72
2023/05/01 00:48:58;;;;;;;0.52;0.52;;;6.20;99.90;;;;;;5011442;28;20166;-72
2023/05/01 00:51:26;;;;;;;0.38;0.38;;;6.20;99.90;;;;;;5029230;28;20059;-72
2023/05/01 00:53:51;;;;;;;0.50;0.50;;;6.20;99.90;;;;;;5026950;28;20033;-72
2023/05/01 00:56:17;;;;;;;0.50;0.50;;;6.20;99.90;;;;;;5027801;28;20032;-72
2023/05/01 00:58:48;;;;;;;0.50;0.50;;;6.20;99.90;;;;;;5045053;28;20076;-73
2023/05/01 01:01:15;;;;;;;0.50;0.50;;;6.20;99.90;;;;;;5025268;28;20509;-72
2023/05/01 01:03:40;;;;;;;0.47;0.47;;;6.20;99.90;;;;;;5027330;28;20037;-71
2023/05/01 01:06:14;;;;;;;0.80;0.80;;;6.20;99.90;;;;;;5025314;28;20059;-71
2023/05/01 01:08:57;;;;;;;0.57;0.57;;;6.20;99.90;;;;;;5028589;28;20047;-71
2023/05/01 01:11:33;;;;;;;0.70;0.70;;;6.20;99.90;;;;;;5029891;28;20401;-72
2023/05/01 01:14:16;;;;;;;0.60;0.60;;;6.20;99.90;;;;;;5031302;28;20051;-72
2023/05/01 01:17:08;;;;;;;0.50;0.50;;;6.20;99.90;;;;;;5027862;28;20504;-73
2023/05/01 01:20:05;;;;;;;0.40;0.40;;;6.20;99.90;;;;;;5001495;28;20052;-73
2023/05/01 01:22:35;;;;;;;0.60;0.60;;;6.20;99.90;;;;;;5046180;28;20052;-72
2023/05/01 01:25:15;;;;;;;0.60;0.60;;;6.10;99.90;;;;;;5029861;28;20486;-73
2023/05/01 01:27:59;;;;;;;0.50;0.50;;;6.10;99.90;;;;;;5027989;28;20183;-73
2023/05/01 01:30:57;;;;;;;0.50;0.50;;;6.10;99.90;;;;;;5026598;28;20053;-73
2023/05/01 01:33:38;;;;;;;;;;;6.10;99.90;;;;;;5026623;28;20088;-73
2023/05/01 01:36:14;;;;;;;0.57;0.57;;;6.00;99.90;;;;;;5025432;28;20353;-73
2023/05/01 01:38:45;;;;;;;0.60;0.60;;;6.00;99.90;;;;;;5028776;28;20145;-73
2023/05/01 01:41:44;;;;;;;0.60;0.60;;;6.00;99.90;;;;;;5027060;28;20166;-73
2023/05/01 01:44:20;;;;;;;0.50;0.50;;;5.90;99.90;;;;;;5025026;28;20049;-73
2023/05/01 01:46:49;;;;;;;0.50;0.50;;;5.90;99.90;;;;;;5024970;28;20400;-73
2023/05/01 01:49:20;;;;;;;0.40;0.40;;;5.80;99.90;;;;;;5029804;28;20156;-73
2023/05/01 01:51:48;;;;;;;0.60;0.60;;;5.80;99.90;;;;;;5023754;28;20053;-73
2023/05/01 01:54:19;;;;;;;0.52;0.52;;;5.80;99.90;;;;;;5029589;28;20076;-73
2023/05/01 01:56:46;;;;;;;0.40;0.40;;;5.80;99.90;;;;;;5026340;28;20075;-73
2023/05/01 01:59:14;;;;;;;0.63;0.63;;;5.80;99.90;;;;;;5027557;28;20037;-73
2023/05/01 02:01:42;;;;;;;0.60;0.60;;;5.80;99.90;;;;;;5032437;28;20453;-73
2023/05/01 02:04:08;;;;;;;0.60;0.60;;;5.70;99.90;;;;;;5027071;28;20507;-73
2023/05/01 02:06:36;;;;;;;0.68;0.68;;;5.70;99.90;;;;;;5024634;28;20456;-72
2023/05/01 02:09:05;;;;;;;0.50;0.50;;;5.70;99.90;;;;;;5028467;28;20151;-73
2023/05/01 02:11:31;;;;;;;0.50;0.50;;;5.80;99.90;;;;;;5024100;28;20077;-72
2023/05/01 02:13:59;;;;;;;0.60;0.60;;;5.70;99.90;;;;;;5011056;28;20486;-73
2023/05/01 02:16:27;;;;;;;0.35;0.35;;;5.80;99.90;;;;;;5009429;28;20051;-72
2023/05/01 02:18:54;;;;;;;0.30;0.30;;;5.90;99.90;;;;;;5011223;28;20375;-72
2023/05/01 02:21:22;;;;;;;0.50;0.50;;;5.90;99.90;;;;;;5024119;28;20045;-73
2023/05/01 02:23:48;;;;;;;0.50;0.50;;;5.90;99.90;;;;;;5009499;28;20128;-72
2023/05/01 02:26:17;;;;;;;0.40;0.40;;;5.90;99.90;;;;;;5025511;28;20120;-73
2023/05/01 02:28:43;;;;;;;0.52;0.52;;;5.90;99.90;;;;;;5024872;28;20138;-72
2023/05/01 02:31:09;;;;;;;0.60;0.60;;;5.90;99.90;;;;;;4993928;28;20425;-72
2023/05/01 02:33:35;;;;;;;0.60;0.60;;;5.90;99.90;;;;;;5026073;28;20446;-72
2023/05/01 02:36:01;;;;;;;0.60;0.60;;;5.80;99.90;;;;;;5026091;28;20045;-73
2023/05/01 02:38:27;;;;;;;0.70;0.70;;;5.80;99.90;;;;;;5026802;28;20168;-72
2023/05/01 02:40:56;;;;;;;0.60;0.60;;;5.80;99.90;;;;;;5025125;28;20478;-72
2023/05/01 02:43:24;;;;;;;0.55;0.55;;;5.70;99.90;;;;;;5027760;28;20042;-73
2023/05/01 02:45:51;;;;;;;0.57;0.57;;;5.70;99.90;;;;;;5026527;28;20080;-72
2023/05/01 02:48:23;;;;;;;0.40;0.40;;;5.60;99.90;;;;;;5026117;28;20045;-72
2023/05/01 02:50:50;;;;;;;0.50;0.50;;;5.60;99.90;;;;;;5026564;28;20141;-72
2023/05/01 02:53:16;;;;;;;0.50;0.50;;;5.70;99.90;;;;;;5025370;28;20538;-72
2023/05/01 02:55:42;;;;;;;;;;;5.50;99.90;;;;;;5024386;28;20033;-72
2023/05/01 02:58:13;;;;;;;0.55;0.55;;;5.50;99.90;;;;;;5041770;28;20334;-72
2023/05/01 03:00:39;;;;;;;0.50;0.50;;;5.40;99.90;;;;;;5026902;28;20041;-72
2023/05/01 03:03:04;;;;;;;0.60;0.60;;;5.30;99.90;;;;;;5010761;28;20049;-72
2023/05/01 03:05:30;;;;;;;0.50;0.50;;;5.30;99.90;;;;;;5008630;28;20038;-73
2023/05/01 03:07:56;;;;;;;0.40;0.40;;;5.10;99.90;;;;;;5026831;28;20041;-73
2023/05/01 03:10:21;;;;;;;0.68;0.68;;;5.10;99.90;;;;;;5026947;28;20049;-73
2023/05/01 03:12:47;;;;;;;0.45;0.45;;;5.20;99.90;;;;;;5026415;28;20041;-74
2023/05/01 03:15:13;;;;;;;0.70;0.70;;;5.20;99.90;;;;;;5009618;28;20060;-72
2023/05/01 03:17:38;;;;;;;0.60;0.60;;;5.10;99.90;;;;;;5026455;28;20037;-73
2023/05/01 03:20:05;;;;;;;0.60;0.60;;;5.00;99.90;;;;;;5026328;28;20076;-72
2023/05/01 03:22:32;;;;;;;0.60;0.60;;;5.00;99.90;;;;;;5026683;28;20494;-72
2023/05/01 03:24:58;;;;;;;0.60;0.60;;;5.00;99.90;;;;;;5025478;28;20099;-73
2023/05/01 03:27:24;;;;;;;0.63;0.63;;;5.00;99.90;;;;;;5019818;28;20061;-73
2023/05/01 03:29:49;;;;;;;0.60;0.60;;;5.10;99.90;;;;;;5024035;28;20509;-73
2023/05/01 03:32:16;;;;;;;0.52;0.52;;;5.10;99.90;;;;;;5024918;28;20399;-73
2023/05/01 03:34:43;;;;;;;0.52;0.52;;;4.90;99.90;;;;;;5026866;28;20152;-73
2023/05/01 03:37:09;;;;;;;0.60;0.60;;;4.80;99.90;;;;;;5023817;28;20075;-72
2023/05/01 03:39:35;;;;;;;0.50;0.50;;;4.80;99.90;;;;;;5021765;28;21365;-72
2023/05/01 03:42:01;;;;;;;0.60;0.60;;;4.80;99.90;;;;;;5025699;28;20084;-72
2023/05/01 03:44:27;;;;;;;0.50;0.50;;;4.90;99.90;;;;;;5026714;28;20076;-72
2023/05/01 03:46:53;;;;;;;0.60;0.60;;;4.70;99.90;;;;;;5025939;28;20528;-72
2023/05/01 03:49:18;;;;;;;0.60;0.60;;;4.90;99.90;;;;;;5025799;28;20135;-72
2023/05/01 03:51:44;;;;;;;0.50;0.50;;;4.70;99.90;;;;;;4989742;28;20049;-72
2023/05/01 03:54:10;;;;;;;0.80;0.80;;;4.60;99.90;;;;;;5009670;28;20071;-72
2023/05/01 03:56:37;;;;;;;0.70;0.70;;;4.60;99.90;;;;;;5025254;28;20164;-72
2023/05/01 03:59:03;;;;;;;0.60;0.60;;;4.60;99.90;;;;;;5003275;28;20046;-72
2023/05/01 04:01:28;;;;;;;0.60;0.60;;;4.50;99.90;;;;;;5024866;28;20041;-72
2023/05/01 04:03:54;;;;;;;0.63;0.63;;;4.50;99.90;;;;;;5024025;28;20152;-72
2023/05/01 04:06:21;;;;;;;0.70;0.70;;;4.50;99.90;;;;;;5024734;28;20072;-72
2023/05/01 04:08:47;;;;;;;0.50;0.50;;;4.50;99.90;;;;;;5020030;28;20479;-72
2023/05/01 04:11:12;;;;;;;0.70;0.70;;;4.50;99.90;;;;;;5026462;28;20045;-72
2023/05/01 04:13:38;;;;;;;0.60;0.60;;;4.40;99.90;;;;;;5018079;28;20398;-72
2023/05/01 04:16:05;;;;;;;0.63;0.63;;;4.40;99.90;;;;;;5019326;28;20038;-72
2023/05/01 04:18:30;;;;;;;0.60;0.60;;;4.40;99.90;;;;;;5020336;28;20108;-73
2023/05/01 04:20:56;;;;;;;0.60;0.60;;;4.40;99.90;;;;;;5022735;28;20045;-73
2023/05/01 04:23:22;;;;;;;0.68;0.68;;;4.40;99.90;;;;;;5022652;28;20084;-72
2023/05/01 04:25:47;;;;;;;0.50;0.50;;;4.40;99.90;;;;;;5023422;28;20176;-72
2023/05/01 04:28:13;;;;;;;0.60;0.60;;;4.40;99.90;;;;;;5020783;28;20057;-72
2023/05/01 04:30:39;;;;;;;0.60;0.60;;;4.40;99.90;;;;;;5034431;28;20430;-72
2023/05/01 04:33:10;;;;;;;0.68;0.68;;;4.50;99.90;;;;;;5007275;28;20089;-71
2023/05/01 04:35:40;;;;;;;0.50;0.50;;;4.50;99.90;;;;;;5005423;28;20037;-71
2023/05/01 04:38:06;;;;;;;0.50;0.50;;;4.60;99.90;;;;;;5018626;28;20447;-72
2023/05/01 04:40:32;;;;;;;0.70;0.70;;;4.60;99.90;;;;;;5022689;28;20037;-71
2023/05/01 04:42:58;;;;;;;0.60;0.60;;;4.80;99.90;;;;;;5025981;28;20041;-72
2023/05/01 04:45:24;;;;;;;0.50;0.50;;;4.80;99.90;;;;;;5010850;28;20048;-72
2023/05/01 04:47:50;;;;;;;0.60;0.60;;;5.10;99.90;;;;;;5009803;28;20558;-72
2023/05/01 04:50:15;;;;;;;0.70;0.70;;;5.00;99.90;;;;;;5028608;28;20076;-73
2023/05/01 04:52:41;;;;;;;0.70;0.70;;;5.10;99.90;;;;;;5011849;28;20034;-72
2023/05/01 04:55:10;;;;;;;0.63;0.63;;;5.10;99.90;;;;;;5018899;28;20042;-72
2023/05/01 04:57:36;;;;;;;0.50;0.50;;;5.20;99.90;;;;;;5006034;28;20044;-73
2023/05/01 05:00:02;;;;;;;0.70;0.70;;;5.30;99.90;;;;;;5004219;28;20033;-72
2023/05/01 05:02:28;;;;;;;1.00;1.00;;;5.40;99.90;;;;;;5027064;28;20060;-72
2023/05/01 05:04:55;;;;;;;0.60;0.60;;;5.50;99.90;;;;;;5028190;28;20041;-73
2023/05/01 05:07:21;;;;;;;0.60;0.60;;;5.70;99.90;;;;;;5026091;28;20399;-73
2023/05/01 05:09:47;;;;;;;0.45;0.45;;;5.70;99.90;;;;;;5010461;28;20046;-73
2023/05/01 05:12:13;;;;;;;0.68;0.68;;;5.80;99.90;;;;;;5028359;28;20368;-73
2023/05/01 05:14:40;;;;;;;0.70;0.70;;;6.00;99.90;;;;;;5028482;28;20045;-72
2023/05/01 05:17:06;;;;;;;0.68;0.68;;;6.10;99.90;;;;;;5012723;28;20047;-72
2023/05/01 05:19:32;;;;;;;0.60;0.60;;;6.30;99.90;;;;;;5024184;28;20037;-72
2023/05/01 05:21:57;;;;;;;0.50;0.50;;;6.40;99.90;;;;;;5025381;28;20076;-73
2023/05/01 05:24:23;;;;;;;0.70;0.70;;;6.60;99.90;;;;;;5028530;28;20087;-73
2023/05/01 05:26:49;;;;;;;0.52;0.52;;;6.80;99.90;;;;;;5004780;28;20042;-73
2023/05/01 05:29:15;;;;;;;0.50;0.50;;;6.90;99.90;;;;;;5026883;28;20076;-74
2023/05/01 05:31:41;;;;;;;0.50;0.50;;;7.00;99.90;;;;;;5021894;28;20038;-74
2023/05/01 05:34:07;;;;;;;0.50;0.50;;;7.10;99.90;;;;;;5018839;28;20052;-73
2023/05/01 05:36:34;;;;;;;0.43;0.43;;;7.20;99.90;;;;;;5022879;28;20083;-73
2023/05/01 05:39:00;;;;;;;0.55;0.55;;;7.30;99.90;;;;;;5007240;28;20087;-74
2023/05/01 05:41:26;;;;;;;0.57;0.57;;;7.40;99.90;;;;;;5026596;28;20088;-73
2023/05/01 05:43:53;;;;;;;0.60;0.60;;;7.60;99.90;;;;;;5010454;28;20048;-74
2023/05/01 05:46:19;;;;;;;0.50;0.50;;;7.60;99.90;;;;;;5016956;28;20041;-74
2023/05/01 05:48:44;;;;;;;;;;;7.80;99.90;;;;;;5020898;28;20056;-74
2023/05/01 05:51:11;;;;;;;0.47;0.47;;;7.80;99.90;;;;;;5023909;28;20047;-73
2023/05/01 05:53:37;;;;;;;0.65;0.65;;;7.90;99.90;;;;;;5025425;28;20037;-73
2023/05/01 05:56:03;;;;;;;0.57;0.57;;;8.00;99.90;;;;;;5016876;28;20038;-73
2023/05/01 05:58:29;;;;;;;0.47;0.47;;;8.00;99.90;;;;;;5026973;28;20419;-73
2023/05/01 06:00:55;;;;;;;0.60;0.60;;;8.00;99.90;;;;;;5001731;28;20030;-73
2023/05/01 06:03:21;;;;;;;0.50;0.50;;;8.10;99.90;;;;;;5026215;28;20036;-73
2023/05/01 06:05:47;;;;;;;0.52;0.52;;;8.10;99.90;;;;;;5022047;28;20052;-74
2023/05/01 06:08:14;;;;;;;0.40;0.40;;;8.20;99.90;;;;;;5016833;28;20052;-73
2023/05/01 06:10:42;;;;;;;0.50;0.50;;;8.20;99.90;;;;;;5021960;28;20142;-74
2023/05/01 06:13:09;;;;;;;0.50;0.50;;;8.20;99.90;;;;;;5021124;28;20560;-74
2023/05/01 06:15:38;;;;;;;0.40;0.40;;;8.30;99.90;;;;;;5007391;28;20116;-74
2023/05/01 06:18:04;;;;;;;0.30;0.30;;;8.40;99.90;;;;;;5011331;28;20708;-74
2023/05/01 06:20:30;;;;;;;;;;;8.50;99.90;;;;;;5025889;28;20061;-73
2023/05/01 06:22:56;;;;;;;0.50;0.50;;;8.50;99.90;;;;;;5024000;28;19916;-74
2023/05/01 06:25:23;;;;;;;0.38;0.38;;;8.60;99.90;;;;;;5022687;28;20103;-74
2023/05/01 06:27:51;;;;;;;0.43;0.43;;;8.70;99.90;;;;;;4994824;28;20062;-74
2023/05/01 06:30:20;;;;;;;0.40;0.40;;;8.90;99.90;;;;;;5003420;28;20184;-74
2023/05/01 06:32:46;;;;;;;0.50;0.50;;;8.90;99.90;;;;;;5000757;28;20517;-74
2023/05/01 06:35:12;;;;;;;0.47;0.47;;;9.00;99.90;;;;;;5001913;28;20049;-74
2023/05/01 06:37:38;;;;;;;0.43;0.43;;;9.10;99.90;;;;;;5002607;28;20081;-74
2023/05/01 06:40:06;;;;;;;0.77;0.77;;;9.20;99.90;;;;;;5002897;28;20029;-74
2023/05/01 06:42:32;;;;;;;0.45;0.45;;;9.40;99.90;;;;;;4987428;28;20472;-74
2023/05/01 06:44:58;;;;;;;0.60;0.60;;;9.50;99.90;;;;;;4999848;28;20072;-74
2023/05/01 06:47:24;;;;;;;1.40;1.40;;;9.60;99.90;;;;;;5005315;28;20038;-74
2023/05/01 06:49:49;;;;;;;1.70;0.80;;;9.70;99.90;;;;;;4994065;28;20049;-74
2023/05/01 06:52:15;;;;;;;0.60;0.60;;;9.80;99.90;;;;;;4997317;28;20046;-75
2023/05/01 06:54:41;;;;;;;0.77;0.77;;;9.80;99.90;;;;;;5001070;28;20134;-74
2023/05/01 06:57:06;;;;;;;0.52;0.52;;;9.90;99.90;;;;;;4988291;28;20167;-74
2023/05/01 06:59:32;;;;;;;0.82;0.82;;;10.00;99.90;;;;;;4985453;28;20033;-74
2023/05/01 07:01:58;;;;;;;0.50;0.50;;;10.20;99.90;;;;;;5004508;28;20041;-74
2023/05/01 07:04:23;;;;;;;0.47;0.47;;;10.20;99.90;;;;;;5005466;28;20101;-75
2023/05/01 07:06:50;;;;;;;0.40;0.40;;;10.40;99.90;;;;;;4968111;28;20400;-81
2023/05/01 07:09:16;;;;;;;0.60;0.60;;;10.40;99.90;;;;;;4990443;28;20318;-82
2023/05/01 07:11:42;;;;;;;0.40;0.40;;;10.50;99.90;;;;;;4992377;28;20065;-83
2023/05/01 07:14:08;;;;;;;0.43;0.43;;;10.60;99.90;;;;;;4989008;28;20044;-81
2023/05/01 07:16:34;;;;;;;0.82;0.63;;;10.40;99.90;;;;;;4985709;28;20436;-80
2023/05/01 07:18:59;;;;;;;0.40;0.40;;;10.70;99.90;;;;;;5002535;28;20052;-81
2023/05/01 07:21:25;;;;;;;1.65;1.38;;;10.80;99.90;;;;;;4989813;28;20041;-81
2023/05/01 07:23:51;;;;;;;0.40;0.40;;;10.90;99.90;;;;;;4982398;28;20498;-80
2023/05/01 07:26:16;;;;;;;0.35;0.35;;;10.90;99.90;;;;;;4990822;28;20128;-80
2023/05/01 07:28:42;;;;;;;0.43;0.43;;;11.00;99.90;;;;;;5013502;28;20057;-80
2023/05/01 07:31:09;;;;;;;4.03;1.40;;;11.10;99.90;;;;;;5010239;28;20119;-80
2023/05/01 07:33:34;;;;;;;0.50;0.50;;;11.20;99.90;;;;;;5006081;28;20064;-80
2023/05/01 07:36:00;;;;;;;0.40;0.40;;;11.30;99.90;;;;;;5007502;28;20849;-81
2023/05/01 07:38:26;;;;;;;0.30;0.30;;;11.50;99.90;;;;;;5024338;28;20071;-81
2023/05/01 07:40:52;;;;;;;0.40;0.40;;;11.70;99.90;;;;;;5007663;28;20169;-81
2023/05/01 07:43:18;;;;;;;0.40;0.40;;;11.90;99.90;;;;;;5006600;28;20040;-80
2023/05/01 07:45:56;;;;;;;0.40;0.40;;;12.10;99.90;;;;;;5007111;28;20514;-81
2023/05/01 07:48:21;;;;;;;0.60;0.60;;;12.30;99.90;;;;;;5003888;28;20398;-81
2023/05/01 07:50:47;;;;;;;0.80;0.70;;;12.40;99.90;;;;;;5005771;28;20052;-81
2023/05/01 07:53:13;;;;;;;0.60;0.60;;;12.60;99.90;;;;;;5018160;28;20038;-81
2023/05/01 07:55:39;;;;;;;0.30;0.30;;;12.70;99.90;;;;;;4990032;28;20041;-80
2023/05/01 07:58:05;;;;;;;1.08;0.63;;;12.90;99.90;;;;;;4984317;28;20091;-80
2023/05/01 08:00:30;;;;;;;0.32;0.32;;;13.10;99.90;;;;;;5018743;28;20739;-80
2023/05/01 08:02:56;;;;;;;0.60;0.60;;;13.20;99.90;;;;;;5000437;28;20041;-81
2023/05/01 08:05:22;;;;;;;0.40;0.40;;;13.40;99.90;;;;;;4987628;28;20049;-81
2023/05/01 08:07:47;;;;;;;0.30;0.30;;;13.60;99.90;;;;;;5017759;28;20383;-79
2023/05/01 08:10:13;;;;;;;0.65;0.45;;;13.70;99.90;;;;;;5004450;28;20458;-80
2023/05/01 08:12:39;;;;;;;;;;;13.90;99.90;;;;;;5003704;28;20060;-80
2023/05/01 08:15:06;;;;;;;0.50;0.50;;;14.00;99.90;;;;;;5037818;28;19943;-79
2023/05/01 08:17:33;;;;;;;0.50;0.50;;;14.10;99.90;;;;;;5004217;28;20041;-80
2023/05/01 08:19:59;;;;;;;0.40;0.40;;;14.00;99.90;;;;;;5021806;28;20320;-80
2023/05/01 08:22:25;;;;;;;0.38;0.38;;;14.00;99.90;;;;;;5000674;28;20394;-80
2023/05/01 08:24:51;;;;;;;0.40;0.40;;;14.10;99.90;;;;;;5004558;28;20285;-79
2023/05/01 08:27:16;;;;;;;;;;;14.20;99.90;;;;;;5003540;28;20049;-79
2023/05/01 08:29:42;;;;;;;1.08;0.52;;;14.20;99.90;;;;;;5025373;28;19924;-79
2023/05/01 08:32:08;;;;;;;0.40;0.40;;;14.20;99.90;;;;;;5009366;28;20455;-79
2023/05/01 08:34:33;;;;;;;0.70;0.70;;;14.30;99.90;;;;;;5028373;28;20123;-80
2023/05/01 08:36:59;;;;;;;;;;;14.50;99.90;;;;;;5028064;28;20221;-79
2023/05/01 08:39:25;;;;;;;0.47;0.47;;;14.80;99.90;;;;;;5025951;28;19921;-80
2023/05/01 08:41:51;;;;;;;;;;;14.90;99.90;;;;;;5033560;28;20076;-80
2023/05/01 08:44:19;;;;;;;0.47;0.47;;;15.10;99.90;;;;;;5015387;28;19925;-80
2023/05/01 08:47:13;;;;;;;0.40;0.40;;;15.20;99.90;;;;;;5035088;28;20091;-80
2023/05/01 08:49:40;;;;;;;1.63;1.52;;;15.30;99.90;;;;;;5033709;28;20447;-80
2023/05/01 08:52:07;;;;;;;0.63;0.40;;;15.40;99.90;;;;;;5013799;28;20056;-80
2023/05/01 08:54:40;;;;;;;2.05;1.27;;;15.40;99.90;;;;;;5034082;28;20489;-80
2023/05/01 08:57:09;;;;;;;1.30;1.00;;;15.50;99.90;;;;;;5034956;28;20430;-80
2023/05/01 08:59:35;;;;;;;0.25;0.25;;;15.70;99.90;;;;;;5024084;28;20040;-80
2023/05/01 09:02:04;;;;;;;0.40;0.40;;;15.80;99.10;;;;;;5029976;28;20056;-80
2023/05/01 09:04:36;;;;;;;0.20;0.20;;;15.80;99.90;;;;;;5018114;28;20131;-80
2023/05/01 09:07:03;;;;;;;0.47;0.38;;;15.90;98.80;;;;;;5030103;28;20466;-82
2023/05/01 09:09:30;;;;;;;0.20;0.20;;;16.00;99.90;;;;;;5029187;28;20056;-80
2023/05/01 09:12:00;;;;;;;0.30;0.30;;;16.00;99.90;;;;;;5001259;28;20044;-80
2023/05/01 09:14:27;;;;;;;0.20;0.20;;;16.10;99.90;;;;;;5031255;28;20037;-80
2023/05/01 09:16:54;;;;;;;0.30;0.30;;;16.20;99.90;;;;;;5012727;28;20041;-80
2023/05/01 09:19:20;;;;;;;0.20;0.20;;;16.40;99.90;;;;;;5028267;28;20048;-80
2023/05/01 09:21:46;;;;;;;0.25;0.25;;;16.60;99.90;;;;;;5028367;28;20728;-80
2023/05/01 09:24:11;;;;;;;;;;;16.60;99.60;;;;;;5029559;28;20617;-80
2023/05/01 09:26:40;;;;;;;2.00;1.55;;;16.50;99.40;;;;;;5011584;28;19917;-80
2023/05/01 09:29:09;;;;;;;0.30;0.30;;;16.40;99.90;;;;;;5034069;28;20072;-80
2023/05/01 09:31:35;;;;;;;0.88;0.88;;;16.40;99.90;;;;;;5031652;28;20475;-80
2023/05/01 09:34:03;;;;;;;1.02;0.98;;;16.40;99.90;;;;;;5031623;28;20033;-79
2023/05/01 09:36:31;;;;;;;0.30;0.30;;;16.40;99.90;;;;;;5015205;28;20059;-79
2023/05/01 09:38:59;;;;;;;0.82;0.77;;;16.40;99.90;;;;;;5033722;28;20094;-80
2023/05/01 09:41:25;;;;;;;0.50;0.50;;;16.40;99.90;;;;;;5033012;28;20118;-79
2023/05/01 09:43:56;;;;;;;0.30;0.30;;;16.30;99.90;;;;;;5042097;28;20040;-79
2023/05/01 09:46:25;;;;;;;0.50;0.50;;;16.40;99.90;;;;;;5015421;28;20037;-79
2023/05/01 09:49:00;;;;;;;0.85;0.85;;;16.50;99.80;;;;;;5033192;28;20429;-80
2023/05/01 09:51:29;;;;;;;1.05;1.05;;;16.60;99.90;;;;;;5026682;28;20033;-79
2023/05/01 09:53:58;;;;;;;0.70;0.68;;;16.60;99.90;;;;;;5033182;28;20040;-79
2023/05/01 09:56:30;;;;;;;0.40;0.40;;;16.60;98.20;;;;;;5032726;28;20094;-79
2023/05/01 09:59:12;;;;;;;0.50;0.50;;;16.60;99.90;;;;;;5035713;28;20047;-79
2023/05/01 10:01:44;;;;;;;0.30;0.30;;;16.70;98.90;;;;;;5016498;28;20041;-80
2023/05/01 10:04:11;;;;;;;0.60;0.60;;;16.80;99.90;;;;;;5027672;28;20096;-79
2023/05/01 10:06:38;;;;;;;0.32;0.32;;;16.90;99.40;;;;;;5014627;28;20433;-79
2023/05/01 10:09:08;;;;;;;0.50;0.50;;;16.90;99.40;;;;;;5032551;28;20074;-78
2023/05/01 10:11:54;;;;;;;0.40;0.40;;;16.90;98.10;;;;;;5032487;28;20182;-79
2023/05/01 10:14:22;;;;;;;0.20;0.20;;;16.90;98.80;;;;;;5032580;28;20049;-79
2023/05/01 10:16:51;;;;;;;1.17;0.30;;;16.90;96.70;;;;;;5031736;28;20091;-79
2023/05/01 10:19:17;;;;;;;0.45;0.45;;;16.90;95.40;;;;;;5015837;28;20104;-79
2023/05/01 10:21:43;;;;;;;;;;;16.90;95.80;;;;;;5032541;28;20094;-79
2023/05/01 10:24:09;;;;;;;0.30;0.30;;;16.90;96.20;;;;;;5032021;28;20381;-78
2023/05/01 10:26:36;;;;;;;0.30;0.30;;;16.90;95.50;;;;;;5032632;28;20049;-78
2023/05/01 10:29:02;;;;;;;1.20;1.10;;;16.90;96.50;;;;;;5047938;28;20136;-79
2023/05/01 10:31:31;;;;;;;0.40;0.40;;;16.90;94.30;;;;;;5015257;28;20049;-79
2023/05/01 10:33:57;;;;;;;0.50;0.50;;;17.00;94.50;;;;;;5032462;28;20053;-79
2023/05/01 10:36:41;;;;;;;0.13;0.13;;;17.10;96.10;;;;;;5015113;28;20049;-79
2023/05/01 10:39:31;;;;;;;0.20;0.20;;;17.00;96.40;;;;;;5037921;28;20045;-79
2023/05/01 10:42:10;;;;;;;0.20;0.20;;;17.10;95.10;;;;;;5029566;28;20448;-79
2023/05/01 10:44:36;;;;;;;0.30;0.30;;;17.10;97.00;;;;;;5028807;28;20075;-78
2023/05/01 10:47:24;;;;;;;0.82;0.82;;;17.20;94.60;;;;;;5001633;28;20395;-79
2023/05/01 10:50:03;;;;;;;0.40;0.40;;;17.20;94.10;;;;;;5030402;28;20114;-79
2023/05/01 10:52:29;;;;;;;0.25;0.25;;;17.20;94.20;;;;;;5014703;28;20466;-79
2023/05/01 10:55:15;;;;;;;;;;;17.30;96.20;;;;;;5016146;28;20033;-79
2023/05/01 10:57:45;;;;;;;1.20;1.10;;;17.40;94.90;;;;;;5030900;28;19921;-79
2023/05/01 11:00:11;;;;;;;0.50;0.50;;;17.40;94.50;;;;;;5032667;28;20494;-78
2023/05/01 11:02:37;;;;;;;0.50;0.50;;;17.50;95.80;;;;;;5018290;28;20515;-79
2023/05/01 11:05:03;;;;;;;0.65;0.55;;;17.70;95.70;;;;;;5013311;28;20055;-79
2023/05/01 11:07:30;;;;;;;0.40;0.40;;;17.70;95.40;;;;;;5014036;28;20037;-79
2023/05/01 11:10:00;;;;;;;0.20;0.20;;;17.80;95.00;;;;;;5031316;28;20496;-79
2023/05/01 11:12:47;;;;;;;2.83;1.42;;;17.80;94.10;;;;;;5014907;28;20041;-79
2023/05/01 11:15:29;;;;;;;0.40;0.40;;;17.90;94.60;;;;;;5031020;28;20044;-79
2023/05/01 11:17:56;;;;;;;0.20;0.20;;;17.90;94.50;;;;;;5030861;28;20044;-80
2023/05/01 11:20:25;;;;;;;1.80;1.05;;;18.00;94.10;;;;;;5026771;28;20120;-79
2023/05/01 11:22:52;;;;;;;0.52;0.52;;;18.10;94.60;;;;;;5025407;28;20125;-79
2023/05/01 11:25:19;;;;;;;0.30;0.30;;;18.10;94.30;;;;;;5031403;28;20048;-79
2023/05/01 11:27:55;;;;;;;1.05;0.95;;;18.20;94.20;;;;;;5037767;28;20052;-79
2023/05/01 11:30:21;;;;;;;0.30;0.30;;;18.30;94.30;;;;;;5014999;28;20063;-79
2023/05/01 11:32:48;;;;;;;;;;;18.40;93.60;;;;;;5031447;28;20049;-79
2023/05/01 11:35:18;;;;;;;0.50;0.50;;;18.40;93.40;;;;;;5030861;28;20335;-79
2023/05/01 11:37:45;;;;;;;0.95;0.95;;;18.50;93.70;;;;;;5028823;28;20047;-79
2023/05/01 11:40:27;;;;;;;0.93;0.75;;;18.50;93.70;;;;;;5030153;28;20454;-79
2023/05/01 11:43:07;;;;;;;0.28;0.28;;;18.70;93.50;;;;;;5023136;28;20051;-79
2023/05/01 11:45:35;;;;;;;0.38;0.38;;;18.80;93.00;;;;;;5028366;28;20099;-79
2023/05/01 11:48:01;;;;;;;0.60;0.60;;;18.90;92.60;;;;;;4998413;28;20053;-79
2023/05/01 11:50:37;;;;;;;0.77;0.77;;;18.90;93.30;;;;;;5029260;28;20515;-80
2023/05/01 11:53:17;;;;;;;0.45;0.45;;;19.00;90.40;;;;;;5046767;28;20505;-79
2023/05/01 11:55:43;;;;;;;0.30;0.30;;;18.80;91.30;;;;;;5027394;28;20033;-79
2023/05/01 11:58:09;;;;;;;0.63;0.63;;;18.80;92.60;;;;;;5030116;28;20052;-79
2023/05/01 12:00:41;;;;;;;;;;;18.80;90.10;;;;;;4985497;28;20045;-79
2023/05/01 12:03:14;;;;;;;0.30;0.30;;;19.10;91.20;;;;;;5012797;28;19920;-79
2023/05/01 12:05:41;;;;;;;0.30;0.30;;;19.20;89.90;;;;;;5026148;28;20458;-79
2023/05/01 12:08:22;;;;;;;0.32;0.32;;;19.20;91.60;;;;;;5029637;28;20432;-79
2023/05/01 12:10:56;;;;;;;0.30;0.30;;;19.00;90.50;;;;;;5025274;28;20052;-79
2023/05/01 12:13:24;;;;;;;0.30;0.30;;;19.00;90.90;;;;;;5031466;28;20079;-79
2023/05/01 12:15:54;;;;;;;0.57;0.40;;;18.90;90.60;;;;;;5028842;28;20057;-79
2023/05/01 12:18:21;;;;;;;0.30;0.30;;;18.80;90.10;;;;;;5045742;28;20051;-80
2023/05/01 12:20:53;;;;;;;0.60;0.60;;;18.80;90.30;;;;;;5029125;28;20401;-79
2023/05/01 12:23:33;;;;;;;0.30;0.30;;;19.00;90.80;;;;;;5029926;28;20047;-79
2023/05/01 12:25:59;;;;;;;0.20;0.20;;;19.20;90.10;;;;;;5014905;28;20063;-79
2023/05/01 12:28:26;;;;;;;0.20;0.20;;;19.40;89.40;;;;;;5030942;28;20061;-80
2023/05/01 12:30:56;;;;;;;0.30;0.30;;;19.50;89.10;;;;;;5032947;28;20045;-80
2023/05/01 12:33:22;;;;;;;0.47;0.47;;;19.60;87.00;;;;;;5035363;28;20447;-78
2023/05/01 12:35:49;;;;;;;0.40;0.40;;;19.60;89.40;;;;;;5029422;28;20135;-79
2023/05/01 12:38:22;;;;;;;0.40;0.40;;;19.60;87.40;;;;;;5016413;28;20041;-79
2023/05/01 12:40:56;;;;;;;0.20;0.20;;;19.70;87.10;;;;;;5013006;28;20114;-79
2023/05/01 12:43:36;;;;;;;0.30;0.30;;;19.60;85.00;;;;;;5035004;28;20041;-79
2023/05/01 12:46:03;;;;;;;0.30;0.30;;;19.70;88.10;;;;;;5029667;28;20037;-79
2023/05/01 12:48:30;;;;;;;0.75;0.75;;;19.70;85.00;;;;;;5029126;28;20110;-79
2023/05/01 12:50:56;;;;;;;0.30;0.30;;;19.80;88.10;;;;;;5028914;28;20049;-79
2023/05/01 12:53:26;;;;;;;0.30;0.30;;;19.90;87.70;;;;;;5013860;28;20060;-80
2023/05/01 12:55:55;;;;;;;0.30;0.30;;;19.90;86.50;;;;;;5030500;28;20047;-79
2023/05/01 12:58:21;;;;;;;0.20;0.20;;;19.70;84.10;;;;;;5029560;28;20092;-79
2023/05/01 13:00:54;;;;;;;0.80;0.40;;;19.50;83.80;;;;;;5034085;28;20037;-80